sensor_id;sensor_type;location;lat;lon;timestamp;pressure;altitude;pressure_sealevel;temperature;humidity
38558;BME280;24333;42.626;23.308;2024-02-26T00:02:18;70149.31;;;-148.95;100.00
38558;BME280;24333;42.626;23.308;2024-02-26T00:04:57;70141.00;;;-148.95;100.00
38558;BME280;24333;42.626;23.308;2024-02-26T00:07:22;70143.09;;;-148.95;100.00
38558;BME280;24333;42.626;23.308;2024-02-26T00:09:51;70151.38;;;-148.95;100.00
38558;BME280;24333;42.626;23.308;2024-02-26T00:12:17;70149.31;;;-148.95;100.00
38558;BME280;24333;42.626;23.308;2024-02-26T00:14:43;70151.38;;;-148.95;100.00
38558;BME280;24333;42.626;23.308;2024-02-26T00:44:10;70062.19;;;-148.95;100.00
38558;BME280;24333;42.626;23.308;2024-02-26T00:46:36;70047.66;;;-148.95;100.00
38558;BME280;24333;42.626;23.308;2024-02-26T02:09:02;69985.41;;;-148.95;100.00
38558;BME280;24333;42.626;23.308;2024-02-26T02:11:33;69977.13;;;-148.95;100.00
38558;BME280;24333;42.626;23.308;2024-02-26T02:13:59;69975.03;;;-148.95;100.00
38558;BME280;24333;42.626;23.308;2024-02-26T02:16:24;69979.19;;;-148.95;100.00
38558;BME280;24333;42.626;23.308;2024-02-26T02:18:50;69975.03;;;-148.95;100.00
38558;BME280;24333;42.626;23.308;2024-02-26T02:21:15;69972.97;;;-148.95;100.00
38558;BME280;24333;42.626;23.308;2024-02-26T03:19:02;69968.81;;;-148.95;100.00
38558;BME280;24333;42.626;23.308;2024-02-26T03:24:24;69956.38;;;-148.95;100.00
38558;BME280;24333;42.626;23.308;2024-02-26T03:26:50;69956.38;;;-148.95;100.00
38558;BME280;24333;42.626;23.308;2024-02-26T03:29:17;69952.22;;;-148.95;100.00
38558;BME280;24333;42.626;23.308;2024-02-26T03:31:43;69952.22;;;-148.95;100.00
38558;BME280;24333;42.626;23.308;2024-02-26T04:12:57;70008.22;;;-148.95;100.00
38558;BME280;24333;42.626;23.308;2024-02-26T04:15:22;70004.09;;;-148.95;100.00
38558;BME280;24333;42.626;23.308;2024-02-26T04:17:48;69993.72;;;-148.95;100.00
38558;BME280;24333;42.626;23.308;2024-02-26T04:20:15;69997.88;;;-148.95;100.00
38558;BME280;24333;42.626;23.308;2024-02-26T04:22:42;69993.72;;;-148.95;100.00
38558;BME280;24333;42.626;23.308;2024-02-26T04:25:08;69987.50;;;-148.95;100.00
38558;BME280;24333;42.626;23.308;2024-02-26T05:07:29;69960.53;;;-148.95;100.00
38558;BME280;24333;42.626;23.308;2024-02-26T05:09:55;69968.81;;;-148.95;100.00
38558;BME280;24333;42.626;23.308;2024-02-26T05:12:21;69970.91;;;-148.95;100.00
38558;BME280;24333;42.626;23.308;2024-02-26T05:14:46;69972.97;;;-148.95;100.00
38558;BME280;24333;42.626;23.308;2024-02-26T05:17:11;69999.94;;;-148.95;100.00
38558;BME280;24333;42.626;23.308;2024-02-26T05:19:37;69997.88;;;-148.95;100.00
38558;BME280;24333;42.626;23.308;2024-02-26T05:22:02;69995.78;;;-148.95;100.00
38558;BME280;24333;42.626;23.308;2024-02-26T05:24:28;69991.63;;;-148.95;100.00
38558;BME280;24333;42.626;23.308;2024-02-26T05:26:53;69985.41;;;-148.95;100.00
38558;BME280;24333;42.626;23.308;2024-02-26T05:29:19;69985.41;;;-148.95;100.00
38558;BME280;24333;42.626;23.308;2024-02-26T05:31:45;69989.56;;;-148.95;100.00
38558;BME280;24333;42.626;23.308;2024-02-26T05:34:10;69997.88;;;-148.95;100.00
38558;BME280;24333;42.626;23.308;2024-02-26T05:36:36;69997.88;;;-148.95;100.00
38558;BME280;24333;42.626;23.308;2024-02-26T05:39:28;69997.88;;;-148.95;100.00
38558;BME280;24333;42.626;23.308;2024-02-26T05:41:53;69995.78;;;-148.95;100.00
38558;BME280;24333;42.626;23.308;2024-02-26T05:44:20;69989.56;;;-148.95;100.00
38558;BME280;24333;42.626;23.308;2024-02-26T05:46:49;69995.78;;;-148.95;100.00
38558;BME280;24333;42.626;23.308;2024-02-26T05:49:15;69991.63;;;-148.95;100.00
38558;BME280;24333;42.626;23.308;2024-02-26T05:51:40;69987.50;;;-148.95;100.00
38558;BME280;24333;42.626;23.308;2024-02-26T05:54:20;69989.56;;;-148.95;100.00
38558;BME280;24333;42.626;23.308;2024-02-26T05:57:33;69985.41;;;-148.95;100.00
38558;BME280;24333;42.626;23.308;2024-02-26T05:59:59;69981.25;;;-148.95;100.00
38558;BME280;24333;42.626;23.308;2024-02-26T06:02:59;69968.81;;;-148.95;100.00
38558;BME280;24333;42.626;23.308;2024-02-26T06:58:04;69896.22;;;-148.95;100.00
38558;BME280;24333;42.626;23.308;2024-02-26T07:00:29;69881.69;;;-148.95;100.00
38558;BME280;24333;42.626;23.308;2024-02-26T07:02:55;69879.63;;;-148.95;100.00
38558;BME280;24333;42.626;23.308;2024-02-26T07:05:21;69875.47;;;-148.95;100.00
38558;BME280;24333;42.626;23.308;2024-02-26T07:07:49;69879.63;;;-148.95;100.00
38558;BME280;24333;42.626;23.308;2024-02-26T07:10:14;69867.16;;;-148.95;100.00
38558;BME280;24333;42.626;23.308;2024-02-26T07:12:40;69858.88;;;-148.95;100.00
38558;BME280;24333;42.626;23.308;2024-02-26T07:15:13;69863.03;;;-148.95;100.00
38558;BME280;24333;42.626;23.308;2024-02-26T07:17:38;69852.66;;;-148.95;100.00
38558;BME280;24333;42.626;23.308;2024-02-26T07:20:08;69850.56;;;-148.95;100.00
38558;BME280;24333;42.626;23.308;2024-02-26T07:22:34;69842.28;;;-148.95;100.00
38558;BME280;24333;42.626;23.308;2024-02-26T07:24:59;69838.13;;;-148.95;100.00
38558;BME280;24333;42.626;23.308;2024-02-26T07:27:25;69833.97;;;-148.95;100.00
38558;BME280;24333;42.626;23.308;2024-02-26T07:29:50;69823.59;;;-148.95;100.00
38558;BME280;24333;42.626;23.308;2024-02-26T07:32:17;69815.31;;;-148.95;100.00
38558;BME280;24333;42.626;23.308;2024-02-26T07:34:43;69823.59;;;-148.95;100.00
38558;BME280;24333;42.626;23.308;2024-02-26T07:37:10;69807.00;;;-148.95;100.00
38558;BME280;24333;42.626;23.308;2024-02-26T07:39:36;69807.00;;;-148.95;100.00
38558;BME280;24333;42.626;23.308;2024-02-26T07:42:03;69804.94;;;-148.95;100.00
38558;BME280;24333;42.626;23.308;2024-02-26T07:44:28;69815.31;;;-148.95;100.00
38558;BME280;24333;42.626;23.308;2024-02-26T07:46:54;69802.88;;;-148.95;100.00
38558;BME280;24333;42.626;23.308;2024-02-26T07:49:19;69788.34;;;-148.95;100.00
38558;BME280;24333;42.626;23.308;2024-02-26T07:51:50;69775.91;;;-148.95;100.00
38558;BME280;24333;42.626;23.308;2024-02-26T08:22:55;69802.88;;;-148.95;100.00
38558;BME280;24333;42.626;23.308;2024-02-26T08:25:20;69782.13;;;-148.95;100.00
38558;BME280;24333;42.626;23.308;2024-02-26T08:27:46;69746.84;;;-148.95;100.00
38558;BME280;24333;42.626;23.308;2024-02-26T08:30:13;69724.03;;;-148.95;100.00
38558;BME280;24333;42.626;23.308;2024-02-26T08:32:41;69703.28;;;-148.95;100.00
38558;BME280;24333;42.626;23.308;2024-02-26T08:35:07;69674.25;;;-148.95;97.82
38558;BME280;24333;42.626;23.308;2024-02-26T08:37:33;69678.41;;;-148.95;96.78
38558;BME280;24333;42.626;23.308;2024-02-26T08:39:58;69676.31;;;-148.95;97.78
38558;BME280;24333;42.626;23.308;2024-02-26T08:42:27;69653.50;;;-148.95;97.38
38558;BME280;24333;42.626;23.308;2024-02-26T08:44:52;69641.06;;;-148.95;94.92
38558;BME280;24333;42.626;23.308;2024-02-26T08:47:19;69649.38;;;-148.95;93.14
38558;BME280;24333;42.626;23.308;2024-02-26T08:49:45;69632.78;;;-148.95;93.31
38558;BME280;24333;42.626;23.308;2024-02-26T08:52:11;69622.41;;;-148.95;92.94
38558;BME280;24333;42.626;23.308;2024-02-26T08:54:36;69643.13;;;-148.95;92.21
38558;BME280;24333;42.626;23.308;2024-02-26T08:57:05;69636.91;;;-148.95;91.69
38558;BME280;24333;42.626;23.308;2024-02-26T08:59:30;69609.94;;;-148.95;91.50
38558;BME280;24333;42.626;23.308;2024-02-26T09:01:56;69599.59;;;-148.95;90.29
38558;BME280;24333;42.626;23.308;2024-02-26T09:04:21;69576.75;;;-148.95;89.04
38558;BME280;24333;42.626;23.308;2024-02-26T09:06:47;69585.06;;;-148.95;87.27
38558;BME280;24333;42.626;23.308;2024-02-26T09:09:12;69589.22;;;-148.95;86.90
38558;BME280;24333;42.626;23.308;2024-02-26T09:11:38;69609.94;;;-148.95;87.27
38558;BME280;24333;42.626;23.308;2024-02-26T09:14:03;69607.88;;;-148.95;86.79
38558;BME280;24333;42.626;23.308;2024-02-26T09:16:29;69589.22;;;-148.95;85.78
38558;BME280;24333;42.626;23.308;2024-02-26T09:18:55;69582.97;;;-148.95;86.68
38558;BME280;24333;42.626;23.308;2024-02-26T09:21:21;69589.22;;;-148.95;85.60
38558;BME280;24333;42.626;23.308;2024-02-26T09:23:52;69585.06;;;-148.95;87.11
38558;BME280;24333;42.626;23.308;2024-02-26T09:26:17;69582.97;;;-148.95;86.42
38558;BME280;24333;42.626;23.308;2024-02-26T09:28:43;69574.69;;;-148.95;83.86
38558;BME280;24333;42.626;23.308;2024-02-26T09:31:08;69553.94;;;-148.95;84.29
38558;BME280;24333;42.626;23.308;2024-02-26T09:33:34;69543.56;;;-148.95;85.87
38558;BME280;24333;42.626;23.308;2024-02-26T09:36:00;69502.09;;;-148.95;83.95
38558;BME280;24333;42.626;23.308;2024-02-26T09:38:28;69468.91;;;-148.95;80.98
38558;BME280;24333;42.626;23.308;2024-02-26T09:40:57;69464.75;;;-148.95;77.83
38558;BME280;24333;42.626;23.308;2024-02-26T09:43:23;69464.75;;;-148.95;76.74
38558;BME280;24333;42.626;23.308;2024-02-26T09:45:53;69441.94;;;-148.95;74.17
38558;BME280;24333;42.626;23.308;2024-02-26T09:48:22;69417.03;;;-148.95;71.41
38558;BME280;24333;42.626;23.308;2024-02-26T09:50:50;69404.59;;;-148.95;70.45
38558;BME280;24333;42.626;23.308;2024-02-26T09:53:21;69419.13;;;-148.95;70.62
38558;BME280;24333;42.626;23.308;2024-02-26T09:55:49;69406.69;;;-148.95;68.37
38558;BME280;24333;42.626;23.308;2024-02-26T09:58:15;69414.97;;;-148.95;69.91
38558;BME280;24333;42.626;23.308;2024-02-26T10:00:47;69392.16;;;-148.95;69.38
38558;BME280;24333;42.626;23.308;2024-02-26T10:03:21;69379.72;;;-148.95;67.26
38558;BME280;24333;42.626;23.308;2024-02-26T10:05:50;69381.78;;;-148.95;69.58
38558;BME280;24333;42.626;23.308;2024-02-26T10:08:24;69375.56;;;-148.95;68.27
38558;BME280;24333;42.626;23.308;2024-02-26T10:10:51;69371.41;;;-148.95;67.19
38558;BME280;24333;42.626;23.308;2024-02-26T10:13:17;69361.03;;;-148.95;66.76
38558;BME280;24333;42.626;23.308;2024-02-26T10:15:42;69348.59;;;-148.95;67.95
38558;BME280;24333;42.626;23.308;2024-02-26T10:18:08;69334.09;;;-148.95;65.98
38558;BME280;24333;42.626;23.308;2024-02-26T10:20:33;69344.44;;;-148.95;66.11
38558;BME280;24333;42.626;23.308;2024-02-26T10:23:02;69325.78;;;-148.95;64.41
38558;BME280;24333;42.626;23.308;2024-02-26T11:02:49;69242.81;;;-148.95;54.54
38558;BME280;24333;42.626;23.308;2024-02-26T11:05:17;69249.03;;;-148.95;53.91
38558;BME280;24333;42.626;23.308;2024-02-26T11:07:48;69246.97;;;-148.95;54.70
38558;BME280;24333;42.626;23.308;2024-02-26T11:10:15;69263.56;;;-148.95;54.06
38558;BME280;24333;42.626;23.308;2024-02-26T11:12:42;69269.78;;;-148.95;54.10
38558;BME280;24333;42.626;23.308;2024-02-26T11:15:08;69255.25;;;-148.95;53.59
38558;BME280;24333;42.626;23.308;2024-02-26T11:17:35;69238.69;;;-148.95;55.22
38558;BME280;24333;42.626;23.308;2024-02-26T11:20:01;69228.31;;;-148.95;53.53
38558;BME280;24333;42.626;23.308;2024-02-26T11:22:30;69222.09;;;-148.95;54.04
38558;BME280;24333;42.626;23.308;2024-02-26T11:24:57;69224.16;;;-148.95;51.69
38558;BME280;24333;42.626;23.308;2024-02-26T11:27:37;69230.38;;;-148.95;51.43
38558;BME280;24333;42.626;23.308;2024-02-26T11:30:05;69232.44;;;-148.95;50.91
38558;BME280;24333;42.626;23.308;2024-02-26T11:32:34;69249.03;;;-148.95;50.81
38558;BME280;24333;42.626;23.308;2024-02-26T11:35:01;69259.41;;;-148.95;51.46
38558;BME280;24333;42.626;23.308;2024-02-26T11:37:28;69240.75;;;-148.95;51.03
38558;BME280;24333;42.626;23.308;2024-02-26T11:39:53;69234.53;;;-148.95;50.59
38558;BME280;24333;42.626;23.308;2024-02-26T11:42:23;69244.91;;;-148.95;50.83
38558;BME280;24333;42.626;23.308;2024-02-26T11:44:50;69234.53;;;-148.95;52.23
38558;BME280;24333;42.626;23.308;2024-02-26T11:47:20;69232.44;;;-148.95;50.91
38558;BME280;24333;42.626;23.308;2024-02-26T11:49:46;69226.22;;;-148.95;50.92
38558;BME280;24333;42.626;23.308;2024-02-26T11:52:13;69207.56;;;-148.95;52.66
38558;BME280;24333;42.626;23.308;2024-02-26T11:54:51;69222.09;;;-148.95;54.20
38558;BME280;24333;42.626;23.308;2024-02-26T11:57:41;69205.50;;;-148.95;54.51
38558;BME280;24333;42.626;23.308;2024-02-26T12:02:52;69164.00;;;-148.95;52.55
38558;BME280;24333;42.626;23.308;2024-02-26T12:05:26;69168.16;;;-148.95;53.27
38558;BME280;24333;42.626;23.308;2024-02-26T12:08:00;69170.22;;;-148.95;52.49
38558;BME280;24333;42.626;23.308;2024-02-26T12:10:28;69193.03;;;-148.95;52.65
38558;BME280;24333;42.626;23.308;2024-02-26T12:15:32;69199.28;;;-148.95;52.38
38558;BME280;24333;42.626;23.308;2024-02-26T12:18:01;69199.28;;;-148.95;51.88
38558;BME280;24333;42.626;23.308;2024-02-26T12:20:27;69193.03;;;-148.95;51.23
38558;BME280;24333;42.626;23.308;2024-02-26T12:22:54;69199.28;;;-148.95;51.81
38558;BME280;24333;42.626;23.308;2024-02-26T12:25:28;69190.97;;;-148.95;52.75
38558;BME280;24333;42.626;23.308;2024-02-26T12:27:55;69201.34;;;-148.95;49.66
38558;BME280;24333;42.626;23.308;2024-02-26T12:30:21;69201.34;;;-148.95;48.20
38558;BME280;24333;42.626;23.308;2024-02-26T12:32:48;69201.34;;;-148.95;48.50
38558;BME280;24333;42.626;23.308;2024-02-26T12:35:15;69193.03;;;-148.95;49.21
38558;BME280;24333;42.626;23.308;2024-02-26T13:50:17;69255.25;;;-148.95;46.06
38558;BME280;24333;42.626;23.308;2024-02-26T14:19:42;69251.13;;;-148.95;46.07
38558;BME280;24333;42.626;23.308;2024-02-26T14:22:13;69261.50;;;-148.95;46.57
38558;BME280;24333;42.626;23.308;2024-02-26T14:24:38;69261.50;;;-148.95;46.18
38558;BME280;24333;42.626;23.308;2024-02-26T14:27:06;69263.56;;;-148.95;46.29
38558;BME280;24333;42.626;23.308;2024-02-26T14:29:33;69261.50;;;-148.95;47.33
38558;BME280;24333;42.626;23.308;2024-02-26T14:31:58;69269.78;;;-148.95;48.14
38558;BME280;24333;42.626;23.308;2024-02-26T14:34:23;69282.22;;;-148.95;45.41
38558;BME280;24333;42.626;23.308;2024-02-26T14:36:49;69276.00;;;-148.95;45.66
38558;BME280;24333;42.626;23.308;2024-02-26T14:39:14;69273.94;;;-148.95;45.68
38558;BME280;24333;42.626;23.308;2024-02-26T14:41:40;69286.38;;;-148.95;45.23
38558;BME280;24333;42.626;23.308;2024-02-26T14:44:05;69290.53;;;-148.95;45.14
38558;BME280;24333;42.626;23.308;2024-02-26T14:49:06;69294.69;;;-148.95;44.66
38558;BME280;24333;42.626;23.308;2024-02-26T14:51:31;69307.13;;;-148.95;45.15
38558;BME280;24333;42.626;23.308;2024-02-26T14:54:04;69311.25;;;-148.95;45.85
38558;BME280;24333;42.626;23.308;2024-02-26T14:56:30;69313.34;;;-148.95;45.40
38558;BME280;24333;42.626;23.308;2024-02-26T14:58:55;69321.63;;;-148.95;44.99
38558;BME280;24333;42.626;23.308;2024-02-26T15:08:14;69356.91;;;-148.95;45.46
38558;BME280;24333;42.626;23.308;2024-02-26T15:10:40;69367.28;;;-148.95;46.23
38558;BME280;24333;42.626;23.308;2024-02-26T15:13:12;69373.50;;;-148.95;47.05
38558;BME280;24333;42.626;23.308;2024-02-26T15:15:41;69375.56;;;-148.95;46.50
38558;BME280;24333;42.626;23.308;2024-02-26T15:18:09;69381.78;;;-148.95;46.57
38558;BME280;24333;42.626;23.308;2024-02-26T15:20:37;69396.31;;;-148.95;47.38
38558;BME280;24333;42.626;23.308;2024-02-26T15:23:04;69412.91;;;-148.95;48.09
38558;BME280;24333;42.626;23.308;2024-02-26T15:25:31;69412.91;;;-148.95;47.95
38558;BME280;24333;42.626;23.308;2024-02-26T15:27:57;69421.19;;;-148.95;47.30
38558;BME280;24333;42.626;23.308;2024-02-26T15:30:22;69431.56;;;-148.95;48.10
38558;BME280;24333;42.626;23.308;2024-02-26T15:32:47;69437.78;;;-148.95;49.25
38558;BME280;24333;42.626;23.308;2024-02-26T15:35:13;69441.94;;;-148.95;49.85
38558;BME280;24333;42.626;23.308;2024-02-26T15:37:38;69450.22;;;-148.95;49.95
38558;BME280;24333;42.626;23.308;2024-02-26T15:40:04;69462.69;;;-148.95;50.25
38558;BME280;24333;42.626;23.308;2024-02-26T15:42:32;69473.06;;;-148.95;51.60
38558;BME280;24333;42.626;23.308;2024-02-26T15:44:58;69475.13;;;-148.95;54.29
38558;BME280;24333;42.626;23.308;2024-02-26T15:47:23;69483.41;;;-148.95;55.26
38558;BME280;24333;42.626;23.308;2024-02-26T15:49:48;69500.00;;;-148.95;55.91
38558;BME280;24333;42.626;23.308;2024-02-26T15:52:14;69508.31;;;-148.95;59.19
38558;BME280;24333;42.626;23.308;2024-02-26T15:54:40;69524.91;;;-148.95;61.09
38558;BME280;24333;42.626;23.308;2024-02-26T15:57:06;69537.34;;;-148.95;63.23
38558;BME280;24333;42.626;23.308;2024-02-26T15:59:37;69560.16;;;-148.95;65.61
38558;BME280;24333;42.626;23.308;2024-02-26T16:02:03;69576.75;;;-148.95;67.61
38558;BME280;24333;42.626;23.308;2024-02-26T16:04:35;69587.13;;;-148.95;68.49
38558;BME280;24333;42.626;23.308;2024-02-26T16:07:20;69612.03;;;-148.95;68.49
38558;BME280;24333;42.626;23.308;2024-02-26T16:09:54;69624.47;;;-148.95;67.32
38558;BME280;24333;42.626;23.308;2024-02-26T16:15:26;69653.50;;;-148.95;69.91
38558;BME280;24333;42.626;23.308;2024-02-26T16:17:52;69661.81;;;-148.95;71.12
38558;BME280;24333;42.626;23.308;2024-02-26T16:20:21;69674.25;;;-148.95;71.59
38558;BME280;24333;42.626;23.308;2024-02-26T16:22:49;69686.69;;;-148.95;72.31
38558;BME280;24333;42.626;23.308;2024-02-26T16:25:16;69695.00;;;-148.95;73.05
38558;BME280;24333;42.626;23.308;2024-02-26T16:27:41;69703.28;;;-148.95;73.55
38558;BME280;24333;42.626;23.308;2024-02-26T16:30:08;69719.88;;;-148.95;74.13
38558;BME280;24333;42.626;23.308;2024-02-26T16:32:35;69726.09;;;-148.95;73.42
38558;BME280;24333;42.626;23.308;2024-02-26T16:35:02;69740.63;;;-148.95;73.58
38558;BME280;24333;42.626;23.308;2024-02-26T16:37:32;69748.94;;;-148.95;74.21
38558;BME280;24333;42.626;23.308;2024-02-26T16:40:00;69757.22;;;-148.95;73.51
38558;BME280;24333;42.626;23.308;2024-02-26T16:42:32;69755.16;;;-148.95;73.13
38558;BME280;24333;42.626;23.308;2024-02-26T16:45:09;69763.44;;;-148.95;73.32
38558;BME280;24333;42.626;23.308;2024-02-26T16:47:57;69777.97;;;-148.95;71.71
38558;BME280;24333;42.626;23.308;2024-02-26T16:50:31;69784.19;;;-148.95;71.62
38558;BME280;24333;42.626;23.308;2024-02-26T16:52:57;69786.28;;;-148.95;70.81
38558;BME280;24333;42.626;23.308;2024-02-26T16:55:22;69790.41;;;-148.95;70.33
38558;BME280;24333;42.626;23.308;2024-02-26T16:57:49;69786.28;;;-148.95;71.81
38558;BME280;24333;42.626;23.308;2024-02-26T17:00:15;69792.50;;;-148.95;72.24
38558;BME280;24333;42.626;23.308;2024-02-26T17:03:00;69800.78;;;-148.95;70.59
38558;BME280;24333;42.626;23.308;2024-02-26T17:05:26;69821.53;;;-148.95;68.47
38558;BME280;24333;42.626;23.308;2024-02-26T17:07:52;69827.75;;;-148.95;69.13
38558;BME280;24333;42.626;23.308;2024-02-26T17:10:17;69829.84;;;-148.95;70.10
38558;BME280;24333;42.626;23.308;2024-02-26T17:16:43;69838.13;;;-148.95;69.87
38558;BME280;24333;42.626;23.308;2024-02-26T17:19:09;69856.81;;;-148.95;69.59
38558;BME280;24333;42.626;23.308;2024-02-26T17:21:35;69858.88;;;-148.95;68.41
38558;BME280;24333;42.626;23.308;2024-02-26T17:24:00;69877.53;;;-148.95;67.20
38558;BME280;24333;42.626;23.308;2024-02-26T17:26:26;69873.41;;;-148.95;66.27
38558;BME280;24333;42.626;23.308;2024-02-26T17:28:52;69875.47;;;-148.95;65.99
38558;BME280;24333;42.626;23.308;2024-02-26T17:31:17;69871.31;;;-148.95;65.61
38558;BME280;24333;42.626;23.308;2024-02-26T17:33:45;69871.31;;;-148.95;64.85
38558;BME280;24333;42.626;23.308;2024-02-26T17:36:27;69871.31;;;-148.95;64.62
38558;BME280;24333;42.626;23.308;2024-02-26T17:38:54;69871.31;;;-148.95;64.73
38558;BME280;24333;42.626;23.308;2024-02-26T17:41:19;69873.41;;;-148.95;64.89
38558;BME280;24333;42.626;23.308;2024-02-26T17:43:45;69873.41;;;-148.95;63.33
38558;BME280;24333;42.626;23.308;2024-02-26T17:46:10;69885.84;;;-148.95;63.33
38558;BME280;24333;42.626;23.308;2024-02-26T17:48:36;69879.63;;;-148.95;64.68
38558;BME280;24333;42.626;23.308;2024-02-26T17:51:01;69875.47;;;-148.95;63.23
38558;BME280;24333;42.626;23.308;2024-02-26T17:53:28;69877.53;;;-148.95;62.05
38558;BME280;24333;42.626;23.308;2024-02-26T17:56:00;69875.47;;;-148.95;63.55
38558;BME280;24333;42.626;23.308;2024-02-26T17:58:37;69877.53;;;-148.95;60.34
38558;BME280;24333;42.626;23.308;2024-02-26T18:01:05;69879.63;;;-148.95;61.48
38558;BME280;24333;42.626;23.308;2024-02-26T18:03:31;69877.53;;;-148.95;62.08
38558;BME280;24333;42.626;23.308;2024-02-26T18:05:56;69885.84;;;-148.95;61.09
38558;BME280;24333;42.626;23.308;2024-02-26T18:08:21;69885.84;;;-148.95;60.47
38558;BME280;24333;42.626;23.308;2024-02-26T18:10:48;69885.84;;;-148.95;62.64
38558;BME280;24333;42.626;23.308;2024-02-26T18:13:16;69887.91;;;-148.95;63.36
38558;BME280;24333;42.626;23.308;2024-02-26T18:15:42;69890.00;;;-148.95;64.39
38558;BME280;24333;42.626;23.308;2024-02-26T18:18:13;69890.00;;;-148.95;64.60
38558;BME280;24333;42.626;23.308;2024-02-26T18:20:39;69894.13;;;-148.95;63.90
38558;BME280;24333;42.626;23.308;2024-02-26T18:23:04;69887.91;;;-148.95;63.71
38558;BME280;24333;42.626;23.308;2024-02-26T18:25:30;69890.00;;;-148.95;63.54
38558;BME280;24333;42.626;23.308;2024-02-26T18:27:56;69890.00;;;-148.95;64.50
38558;BME280;24333;42.626;23.308;2024-02-26T18:30:25;69890.00;;;-148.95;65.27
38558;BME280;24333;42.626;23.308;2024-02-26T18:32:51;69890.00;;;-148.95;66.69
38558;BME280;24333;42.626;23.308;2024-02-26T18:35:17;69892.06;;;-148.95;67.13
38558;BME280;24333;42.626;23.308;2024-02-26T18:37:42;69892.06;;;-148.95;66.94
38558;BME280;24333;42.626;23.308;2024-02-26T18:40:08;69902.44;;;-148.95;67.06
38558;BME280;24333;42.626;23.308;2024-02-26T18:42:34;69906.59;;;-148.95;67.27
38558;BME280;24333;42.626;23.308;2024-02-26T18:45:25;69931.47;;;-148.95;68.42
38558;BME280;24333;42.626;23.308;2024-02-26T18:48:06;69933.56;;;-148.95;68.62
38558;BME280;24333;42.626;23.308;2024-02-26T18:50:32;69948.06;;;-148.95;68.42
38558;BME280;24333;42.626;23.308;2024-02-26T18:52:58;69958.44;;;-148.95;68.99
38558;BME280;24333;42.626;23.308;2024-02-26T18:55:27;69956.38;;;-148.95;69.34
38558;BME280;24333;42.626;23.308;2024-02-26T18:57:55;69962.59;;;-148.95;68.09
38558;BME280;24333;42.626;23.308;2024-02-26T19:00:20;69956.38;;;-148.95;68.08
38558;BME280;24333;42.626;23.308;2024-02-26T19:06:01;69964.66;;;-148.95;68.59
38558;BME280;24333;42.626;23.308;2024-02-26T19:08:28;69962.59;;;-148.95;69.86
38558;BME280;24333;42.626;23.308;2024-02-26T19:10:54;69972.97;;;-148.95;69.42
38558;BME280;24333;42.626;23.308;2024-02-26T19:13:20;69975.03;;;-148.95;69.91
38558;BME280;24333;42.626;23.308;2024-02-26T19:16:10;69977.13;;;-148.95;69.37
38558;BME280;24333;42.626;23.308;2024-02-26T19:18:35;69977.13;;;-148.95;69.20
38558;BME280;24333;42.626;23.308;2024-02-26T19:21:01;69966.75;;;-148.95;69.40
38558;BME280;24333;42.626;23.308;2024-02-26T19:23:26;69970.91;;;-148.95;69.67
38558;BME280;24333;42.626;23.308;2024-02-26T19:26:11;69964.66;;;-148.95;70.25
38558;BME280;24333;42.626;23.308;2024-02-26T23:03:29;70205.31;;;-148.95;83.46
38558;BME280;24333;42.626;23.308;2024-02-26T23:05:54;70197.03;;;-148.95;82.88
38558;BME280;24333;42.626;23.308;2024-02-26T23:08:20;70199.09;;;-148.95;82.66
38558;BME280;24333;42.626;23.308;2024-02-26T23:10:45;70199.09;;;-148.95;83.43
38558;BME280;24333;42.626;23.308;2024-02-26T23:13:11;70192.88;;;-148.95;82.72
38558;BME280;24333;42.626;23.308;2024-02-26T23:15:36;70184.56;;;-148.95;82.01
38558;BME280;24333;42.626;23.308;2024-02-26T23:18:02;70182.50;;;-148.95;81.86
38558;BME280;24333;42.626;23.308;2024-02-26T23:20:27;70176.28;;;-148.95;81.17
38558;BME280;24333;42.626;23.308;2024-02-26T23:22:53;70178.34;;;-148.95;80.73
38558;BME280;24333;42.626;23.308;2024-02-26T23:25:19;70180.44;;;-148.95;78.94
38558;BME280;24333;42.626;23.308;2024-02-26T23:27:47;70180.44;;;-148.95;79.10
38558;BME280;24333;42.626;23.308;2024-02-26T23:30:13;70174.19;;;-148.95;79.88
